Terminal Aerodrome Forecast
Issued by NWS

Current Version | Previous Version | Text Only | Print | Product List | Glossary On
Versions: 1 2 3 4 5 6 7 8 9 10 11 12 13 14 15 16 17 18 19 20 21 22 23 24 25 26 27 28
000
FTUS45 KBOI 220520
TAFMYL
TAF
KMYL 220520Z 2206/2306 VRB03KT P6SM VCFG FEW001 SCT050 BKN250
      TEMPO 2206/2209 2SM BR SCT001
     FM220900 VRB03KT 1SM BR BKN010
      TEMPO 2210/2212 1/2SM FZFG BKN005
     FM221200 VRB03KT 1/2SM FZFG OVC005
     FM221700 17009KT P6SM SCT100 OVC200
     FM230300 VRB03KT P6SM FEW070 OVC100=

USA.gov is the U.S. government's official web portal to all federal, state and local government web resources and services.